Millingtn, Tennessee
Current Conditions -  °F | °C
As of 6:50 PM on Sunday 23 Nov 2014 (Local Time) from KNQA Reporting Station
Overcast Overcast  
Wind Chill: 61°   Ceiling: 700
Heat Index: 61°   Visibility: 10mi
Dew Point: 59°   Wind: 9mph
Humidity: 94%   Direction: 200°SSW
Pressure: 29.41"   Gusts: NA
Location:  35.3415°N, 89.8975°W
Report Text: KNQA 240050Z 20008KT 10SM OVC007 16/15 A2941
Loading
Personal Weather Stations






























Interactive Weather Map New forecast layout! Learn more

10-Day Weather Forecast

Advertisements
Track Severe Weather on mobile